sensor_id;sensor_type;location;lat;lon;timestamp;P1;durP1;ratioP1;P2;durP2;ratioP2
18754;SDS011;35061;47.664;9.166;2023-04-24T00:00:11;2.42;;;1.00;;
18754;SDS011;35061;47.664;9.166;2023-04-24T00:02:42;1.17;;;0.88;;
18754;SDS011;35061;47.664;9.166;2023-04-24T00:05:14;1.85;;;0.90;;
18754;SDS011;35061;47.664;9.166;2023-04-24T00:07:43;1.73;;;0.90;;
18754;SDS011;35061;47.664;9.166;2023-04-24T00:10:12;2.08;;;1.00;;
18754;SDS011;35061;47.664;9.166;2023-04-24T00:12:40;1.48;;;0.90;;
18754;SDS011;35061;47.664;9.166;2023-04-24T00:15:08;0.80;;;0.80;;
18754;SDS011;35061;47.664;9.166;2023-04-24T00:17:37;0.70;;;0.70;;
18754;SDS011;35061;47.664;9.166;2023-04-24T00:20:05;1.10;;;1.00;;
18754;SDS011;35061;47.664;9.166;2023-04-24T00:22:34;1.17;;;0.98;;
18754;SDS011;35061;47.664;9.166;2023-04-24T00:25:02;4.00;;;1.00;;
18754;SDS011;35061;47.664;9.166;2023-04-24T00:27:30;0.90;;;0.85;;
18754;SDS011;35061;47.664;9.166;2023-04-24T00:29:58;1.10;;;0.82;;
18754;SDS011;35061;47.664;9.166;2023-04-24T00:32:26;1.45;;;1.20;;
18754;SDS011;35061;47.664;9.166;2023-04-24T00:34:54;2.22;;;0.98;;
18754;SDS011;35061;47.664;9.166;2023-04-24T00:37:22;1.08;;;0.98;;
18754;SDS011;35061;47.664;9.166;2023-04-24T00:39:50;1.00;;;0.80;;
18754;SDS011;35061;47.664;9.166;2023-04-24T00:42:18;1.98;;;1.37;;
18754;SDS011;35061;47.664;9.166;2023-04-24T00:44:46;1.10;;;0.93;;
18754;SDS011;35061;47.664;9.166;2023-04-24T00:47:14;0.80;;;0.80;;
18754;SDS011;35061;47.664;9.166;2023-04-24T00:49:42;2.22;;;1.10;;
18754;SDS011;35061;47.664;9.166;2023-04-24T00:52:11;1.75;;;1.25;;
18754;SDS011;35061;47.664;9.166;2023-04-24T00:54:40;2.05;;;0.80;;
18754;SDS011;35061;47.664;9.166;2023-04-24T00:57:07;0.85;;;0.75;;
18754;SDS011;35061;47.664;9.166;2023-04-24T00:59:35;0.85;;;0.85;;
18754;SDS011;35061;47.664;9.166;2023-04-24T01:02:04;0.85;;;0.85;;
18754;SDS011;35061;47.664;9.166;2023-04-24T01:04:33;0.85;;;0.85;;
18754;SDS011;35061;47.664;9.166;2023-04-24T01:07:01;0.75;;;0.75;;
18754;SDS011;35061;47.664;9.166;2023-04-24T01:09:29;0.80;;;0.80;;
18754;SDS011;35061;47.664;9.166;2023-04-24T01:11:57;2.17;;;0.80;;
18754;SDS011;35061;47.664;9.166;2023-04-24T01:14:25;1.25;;;0.75;;
18754;SDS011;35061;47.664;9.166;2023-04-24T01:16:53;1.00;;;0.90;;
18754;SDS011;35061;47.664;9.166;2023-04-24T01:19:21;0.68;;;0.68;;
18754;SDS011;35061;47.664;9.166;2023-04-24T01:21:50;2.03;;;0.80;;
18754;SDS011;35061;47.664;9.166;2023-04-24T01:24:20;1.23;;;0.70;;
18754;SDS011;35061;47.664;9.166;2023-04-24T01:26:48;0.90;;;0.75;;
18754;SDS011;35061;47.664;9.166;2023-04-24T01:29:17;0.70;;;0.70;;
18754;SDS011;35061;47.664;9.166;2023-04-24T01:31:44;1.20;;;0.85;;
18754;SDS011;35061;47.664;9.166;2023-04-24T01:34:13;0.98;;;0.70;;
18754;SDS011;35061;47.664;9.166;2023-04-24T01:36:41;0.70;;;0.70;;
18754;SDS011;35061;47.664;9.166;2023-04-24T01:39:13;0.82;;;0.62;;
18754;SDS011;35061;47.664;9.166;2023-04-24T01:41:41;0.65;;;0.65;;
18754;SDS011;35061;47.664;9.166;2023-04-24T01:44:09;0.90;;;0.60;;
18754;SDS011;35061;47.664;9.166;2023-04-24T01:46:37;0.60;;;0.60;;
18754;SDS011;35061;47.664;9.166;2023-04-24T01:49:05;1.30;;;0.50;;
18754;SDS011;35061;47.664;9.166;2023-04-24T01:51:34;0.70;;;0.52;;
18754;SDS011;35061;47.664;9.166;2023-04-24T01:54:02;0.80;;;0.60;;
18754;SDS011;35061;47.664;9.166;2023-04-24T01:56:30;0.50;;;0.50;;
18754;SDS011;35061;47.664;9.166;2023-04-24T01:59:01;0.60;;;0.60;;
18754;SDS011;35061;47.664;9.166;2023-04-24T02:01:34;0.55;;;0.55;;
18754;SDS011;35061;47.664;9.166;2023-04-24T02:04:06;0.55;;;0.50;;
18754;SDS011;35061;47.664;9.166;2023-04-24T02:06:35;0.80;;;0.77;;
18754;SDS011;35061;47.664;9.166;2023-04-24T02:09:03;1.37;;;0.57;;
18754;SDS011;35061;47.664;9.166;2023-04-24T02:11:31;0.50;;;0.50;;
18754;SDS011;35061;47.664;9.166;2023-04-24T02:13:59;2.03;;;0.60;;
18754;SDS011;35061;47.664;9.166;2023-04-24T02:16:28;0.60;;;0.57;;
18754;SDS011;35061;47.664;9.166;2023-04-24T02:18:59;1.25;;;0.60;;
18754;SDS011;35061;47.664;9.166;2023-04-24T02:21:27;2.37;;;0.60;;
18754;SDS011;35061;47.664;9.166;2023-04-24T02:23:55;0.40;;;0.40;;
18754;SDS011;35061;47.664;9.166;2023-04-24T02:26:23;0.90;;;0.70;;
18754;SDS011;35061;47.664;9.166;2023-04-24T02:28:51;0.62;;;0.62;;
18754;SDS011;35061;47.664;9.166;2023-04-24T02:31:19;1.67;;;0.50;;
18754;SDS011;35061;47.664;9.166;2023-04-24T02:33:47;1.45;;;0.70;;
18754;SDS011;35061;47.664;9.166;2023-04-24T02:36:15;1.23;;;0.68;;
18754;SDS011;35061;47.664;9.166;2023-04-24T02:38:43;0.50;;;0.50;;
18754;SDS011;35061;47.664;9.166;2023-04-24T02:41:11;0.60;;;0.60;;
18754;SDS011;35061;47.664;9.166;2023-04-24T02:43:39;0.50;;;0.50;;
18754;SDS011;35061;47.664;9.166;2023-04-24T02:46:07;0.85;;;0.50;;
18754;SDS011;35061;47.664;9.166;2023-04-24T02:48:35;0.60;;;0.60;;
18754;SDS011;35061;47.664;9.166;2023-04-24T02:51:03;0.40;;;0.40;;
18754;SDS011;35061;47.664;9.166;2023-04-24T02:53:31;0.50;;;0.50;;
18754;SDS011;35061;47.664;9.166;2023-04-24T02:55:59;0.50;;;0.50;;
18754;SDS011;35061;47.664;9.166;2023-04-24T02:58:27;1.67;;;0.68;;
18754;SDS011;35061;47.664;9.166;2023-04-24T03:00:55;2.60;;;0.60;;
18754;SDS011;35061;47.664;9.166;2023-04-24T03:03:23;0.65;;;0.65;;
18754;SDS011;35061;47.664;9.166;2023-04-24T03:05:52;0.40;;;0.40;;
18754;SDS011;35061;47.664;9.166;2023-04-24T03:08:20;0.52;;;0.50;;
18754;SDS011;35061;47.664;9.166;2023-04-24T03:10:48;0.50;;;0.50;;
18754;SDS011;35061;47.664;9.166;2023-04-24T03:13:16;1.27;;;0.40;;
18754;SDS011;35061;47.664;9.166;2023-04-24T03:15:44;0.62;;;0.62;;
18754;SDS011;35061;47.664;9.166;2023-04-24T03:18:13;0.50;;;0.40;;
18754;SDS011;35061;47.664;9.166;2023-04-24T03:20:42;1.08;;;0.50;;
18754;SDS011;35061;47.664;9.166;2023-04-24T03:23:10;0.40;;;0.40;;
18754;SDS011;35061;47.664;9.166;2023-04-24T03:25:38;0.45;;;0.45;;
18754;SDS011;35061;47.664;9.166;2023-04-24T03:28:06;0.50;;;0.50;;
18754;SDS011;35061;47.664;9.166;2023-04-24T03:30:34;0.40;;;0.40;;
18754;SDS011;35061;47.664;9.166;2023-04-24T03:33:02;0.30;;;0.30;;
18754;SDS011;35061;47.664;9.166;2023-04-24T03:35:30;0.40;;;0.40;;
18754;SDS011;35061;47.664;9.166;2023-04-24T03:37:58;0.70;;;0.40;;
18754;SDS011;35061;47.664;9.166;2023-04-24T03:40:26;0.62;;;0.40;;
18754;SDS011;35061;47.664;9.166;2023-04-24T03:42:54;0.50;;;0.50;;
18754;SDS011;35061;47.664;9.166;2023-04-24T03:45:22;0.37;;;0.37;;
18754;SDS011;35061;47.664;9.166;2023-04-24T03:47:50;2.72;;;0.68;;
18754;SDS011;35061;47.664;9.166;2023-04-24T03:50:18;0.40;;;0.40;;
18754;SDS011;35061;47.664;9.166;2023-04-24T03:52:46;0.40;;;0.40;;
18754;SDS011;35061;47.664;9.166;2023-04-24T03:55:14;0.40;;;0.40;;
18754;SDS011;35061;47.664;9.166;2023-04-24T03:57:42;0.73;;;0.73;;
18754;SDS011;35061;47.664;9.166;2023-04-24T04:00:10;0.40;;;0.40;;
18754;SDS011;35061;47.664;9.166;2023-04-24T04:02:38;0.40;;;0.40;;
18754;SDS011;35061;47.664;9.166;2023-04-24T04:05:07;1.58;;;0.40;;
18754;SDS011;35061;47.664;9.166;2023-04-24T04:07:35;0.60;;;0.60;;
18754;SDS011;35061;47.664;9.166;2023-04-24T04:10:03;0.45;;;0.40;;
18754;SDS011;35061;47.664;9.166;2023-04-24T04:12:32;0.62;;;0.40;;
18754;SDS011;35061;47.664;9.166;2023-04-24T04:15:00;0.50;;;0.50;;
18754;SDS011;35061;47.664;9.166;2023-04-24T04:17:28;0.40;;;0.40;;
18754;SDS011;35061;47.664;9.166;2023-04-24T04:19:55;0.50;;;0.50;;
18754;SDS011;35061;47.664;9.166;2023-04-24T04:22:23;0.40;;;0.40;;
18754;SDS011;35061;47.664;9.166;2023-04-24T04:24:51;0.62;;;0.50;;
18754;SDS011;35061;47.664;9.166;2023-04-24T04:27:19;0.47;;;0.47;;
18754;SDS011;35061;47.664;9.166;2023-04-24T04:29:48;0.30;;;0.30;;
18754;SDS011;35061;47.664;9.166;2023-04-24T04:32:16;0.60;;;0.60;;
18754;SDS011;35061;47.664;9.166;2023-04-24T04:34:44;0.40;;;0.40;;
18754;SDS011;35061;47.664;9.166;2023-04-24T04:37:12;0.50;;;0.40;;
18754;SDS011;35061;47.664;9.166;2023-04-24T04:39:41;0.77;;;0.50;;
18754;SDS011;35061;47.664;9.166;2023-04-24T04:42:10;0.50;;;0.50;;
18754;SDS011;35061;47.664;9.166;2023-04-24T04:44:38;0.85;;;0.50;;
18754;SDS011;35061;47.664;9.166;2023-04-24T04:47:06;1.20;;;0.50;;
18754;SDS011;35061;47.664;9.166;2023-04-24T04:49:35;0.90;;;0.43;;
18754;SDS011;35061;47.664;9.166;2023-04-24T04:52:03;0.40;;;0.40;;
18754;SDS011;35061;47.664;9.166;2023-04-24T04:54:31;0.75;;;0.60;;
18754;SDS011;35061;47.664;9.166;2023-04-24T04:56:59;0.40;;;0.40;;
18754;SDS011;35061;47.664;9.166;2023-04-24T04:59:29;0.50;;;0.50;;
18754;SDS011;35061;47.664;9.166;2023-04-24T05:01:57;0.62;;;0.50;;
18754;SDS011;35061;47.664;9.166;2023-04-24T05:04:25;0.50;;;0.50;;
18754;SDS011;35061;47.664;9.166;2023-04-24T05:06:54;0.60;;;0.60;;
18754;SDS011;35061;47.664;9.166;2023-04-24T05:09:22;1.12;;;0.60;;
18754;SDS011;35061;47.664;9.166;2023-04-24T05:11:50;0.37;;;0.37;;
18754;SDS011;35061;47.664;9.166;2023-04-24T05:14:18;0.68;;;0.60;;
18754;SDS011;35061;47.664;9.166;2023-04-24T05:16:46;0.60;;;0.60;;
18754;SDS011;35061;47.664;9.166;2023-04-24T05:19:14;0.60;;;0.50;;
18754;SDS011;35061;47.664;9.166;2023-04-24T05:21:42;0.88;;;0.70;;
18754;SDS011;35061;47.664;9.166;2023-04-24T05:24:10;0.50;;;0.50;;
18754;SDS011;35061;47.664;9.166;2023-04-24T05:26:38;1.27;;;0.50;;
18754;SDS011;35061;47.664;9.166;2023-04-24T05:29:06;1.67;;;0.60;;
18754;SDS011;35061;47.664;9.166;2023-04-24T05:31:34;0.50;;;0.50;;
18754;SDS011;35061;47.664;9.166;2023-04-24T05:34:02;0.60;;;0.60;;
18754;SDS011;35061;47.664;9.166;2023-04-24T05:36:30;1.87;;;0.88;;
18754;SDS011;35061;47.664;9.166;2023-04-24T05:38:58;1.90;;;0.60;;
18754;SDS011;35061;47.664;9.166;2023-04-24T05:41:26;0.80;;;0.50;;
18754;SDS011;35061;47.664;9.166;2023-04-24T05:43:54;0.70;;;0.60;;
18754;SDS011;35061;47.664;9.166;2023-04-24T05:46:22;0.68;;;0.68;;
18754;SDS011;35061;47.664;9.166;2023-04-24T05:48:50;0.60;;;0.60;;
18754;SDS011;35061;47.664;9.166;2023-04-24T05:51:18;0.60;;;0.60;;
18754;SDS011;35061;47.664;9.166;2023-04-24T05:53:46;0.60;;;0.60;;
18754;SDS011;35061;47.664;9.166;2023-04-24T05:56:14;0.50;;;0.50;;
18754;SDS011;35061;47.664;9.166;2023-04-24T05:58:43;0.82;;;0.68;;
18754;SDS011;35061;47.664;9.166;2023-04-24T06:01:11;0.50;;;0.50;;
18754;SDS011;35061;47.664;9.166;2023-04-24T06:03:41;0.95;;;0.50;;
18754;SDS011;35061;47.664;9.166;2023-04-24T06:06:09;0.68;;;0.68;;
18754;SDS011;35061;47.664;9.166;2023-04-24T06:08:37;0.60;;;0.60;;
18754;SDS011;35061;47.664;9.166;2023-04-24T06:11:05;1.10;;;0.80;;
18754;SDS011;35061;47.664;9.166;2023-04-24T06:13:33;0.60;;;0.60;;
18754;SDS011;35061;47.664;9.166;2023-04-24T06:16:01;1.37;;;0.60;;
18754;SDS011;35061;47.664;9.166;2023-04-24T06:18:29;0.70;;;0.70;;
18754;SDS011;35061;47.664;9.166;2023-04-24T06:20:58;2.22;;;0.70;;
18754;SDS011;35061;47.664;9.166;2023-04-24T06:23:26;0.77;;;0.77;;
18754;SDS011;35061;47.664;9.166;2023-04-24T06:25:54;0.98;;;0.90;;
18754;SDS011;35061;47.664;9.166;2023-04-24T06:28:22;1.20;;;0.60;;
18754;SDS011;35061;47.664;9.166;2023-04-24T06:30:50;1.77;;;1.17;;
18754;SDS011;35061;47.664;9.166;2023-04-24T06:33:17;0.70;;;0.70;;
18754;SDS011;35061;47.664;9.166;2023-04-24T06:35:48;1.17;;;1.00;;
18754;SDS011;35061;47.664;9.166;2023-04-24T06:38:16;1.25;;;1.15;;
18754;SDS011;35061;47.664;9.166;2023-04-24T06:40:44;1.58;;;1.33;;
18754;SDS011;35061;47.664;9.166;2023-04-24T06:43:12;1.25;;;0.85;;
18754;SDS011;35061;47.664;9.166;2023-04-24T06:45:42;4.65;;;1.40;;
18754;SDS011;35061;47.664;9.166;2023-04-24T06:48:11;1.33;;;1.17;;
18754;SDS011;35061;47.664;9.166;2023-04-24T06:50:39;0.93;;;0.93;;
18754;SDS011;35061;47.664;9.166;2023-04-24T06:53:07;0.90;;;0.90;;
18754;SDS011;35061;47.664;9.166;2023-04-24T06:55:37;2.58;;;2.25;;
18754;SDS011;35061;47.664;9.166;2023-04-24T06:58:04;1.35;;;1.20;;
18754;SDS011;35061;47.664;9.166;2023-04-24T07:00:33;1.48;;;1.17;;
18754;SDS011;35061;47.664;9.166;2023-04-24T07:03:01;0.95;;;0.95;;
18754;SDS011;35061;47.664;9.166;2023-04-24T07:05:30;1.20;;;1.10;;
18754;SDS011;35061;47.664;9.166;2023-04-24T07:07:58;1.23;;;1.12;;
18754;SDS011;35061;47.664;9.166;2023-04-24T07:10:26;1.87;;;1.35;;
18754;SDS011;35061;47.664;9.166;2023-04-24T07:12:56;1.35;;;1.25;;
18754;SDS011;35061;47.664;9.166;2023-04-24T07:15:24;2.05;;;1.17;;
18754;SDS011;35061;47.664;9.166;2023-04-24T07:17:52;1.33;;;1.23;;
18754;SDS011;35061;47.664;9.166;2023-04-24T07:20:20;3.65;;;2.03;;
18754;SDS011;35061;47.664;9.166;2023-04-24T07:22:48;1.70;;;1.52;;
18754;SDS011;35061;47.664;9.166;2023-04-24T07:25:16;4.70;;;1.30;;
18754;SDS011;35061;47.664;9.166;2023-04-24T07:27:44;2.08;;;1.85;;
18754;SDS011;35061;47.664;9.166;2023-04-24T07:30:12;3.05;;;1.70;;
18754;SDS011;35061;47.664;9.166;2023-04-24T07:32:40;1.25;;;1.15;;
18754;SDS011;35061;47.664;9.166;2023-04-24T07:35:09;4.28;;;1.65;;
18754;SDS011;35061;47.664;9.166;2023-04-24T07:37:37;1.42;;;1.30;;
18754;SDS011;35061;47.664;9.166;2023-04-24T07:40:05;2.17;;;1.20;;
18754;SDS011;35061;47.664;9.166;2023-04-24T07:42:33;1.37;;;1.27;;
18754;SDS011;35061;47.664;9.166;2023-04-24T07:45:02;2.60;;;1.58;;
18754;SDS011;35061;47.664;9.166;2023-04-24T07:47:30;2.80;;;1.60;;
18754;SDS011;35061;47.664;9.166;2023-04-24T07:49:59;2.08;;;1.20;;
18754;SDS011;35061;47.664;9.166;2023-04-24T07:52:27;3.05;;;1.60;;
18754;SDS011;35061;47.664;9.166;2023-04-24T07:54:55;2.05;;;1.60;;
18754;SDS011;35061;47.664;9.166;2023-04-24T07:57:25;2.30;;;1.20;;
18754;SDS011;35061;47.664;9.166;2023-04-24T07:59:53;1.70;;;1.60;;
18754;SDS011;35061;47.664;9.166;2023-04-24T08:02:22;1.67;;;1.58;;
18754;SDS011;35061;47.664;9.166;2023-04-24T08:04:53;2.97;;;1.50;;
18754;SDS011;35061;47.664;9.166;2023-04-24T08:07:24;1.85;;;1.48;;
18754;SDS011;35061;47.664;9.166;2023-04-24T08:09:52;2.12;;;1.33;;
18754;SDS011;35061;47.664;9.166;2023-04-24T08:12:19;1.60;;;1.50;;
18754;SDS011;35061;47.664;9.166;2023-04-24T08:14:47;1.73;;;1.30;;
18754;SDS011;35061;47.664;9.166;2023-04-24T08:17:16;1.33;;;1.23;;
18754;SDS011;35061;47.664;9.166;2023-04-24T08:19:44;2.47;;;1.20;;
18754;SDS011;35061;47.664;9.166;2023-04-24T08:22:15;2.58;;;1.37;;
18754;SDS011;35061;47.664;9.166;2023-04-24T08:24:43;1.85;;;1.30;;
18754;SDS011;35061;47.664;9.166;2023-04-24T08:27:11;2.65;;;1.20;;
18754;SDS011;35061;47.664;9.166;2023-04-24T08:29:39;1.23;;;1.05;;
18754;SDS011;35061;47.664;9.166;2023-04-24T08:32:07;1.48;;;1.20;;
18754;SDS011;35061;47.664;9.166;2023-04-24T08:34:35;1.85;;;1.20;;
18754;SDS011;35061;47.664;9.166;2023-04-24T08:37:03;2.05;;;1.33;;
18754;SDS011;35061;47.664;9.166;2023-04-24T08:39:31;1.80;;;1.37;;
18754;SDS011;35061;47.664;9.166;2023-04-24T08:42:00;2.28;;;1.35;;
18754;SDS011;35061;47.664;9.166;2023-04-24T08:44:32;1.60;;;1.33;;
18754;SDS011;35061;47.664;9.166;2023-04-24T08:47:02;1.20;;;1.10;;
18754;SDS011;35061;47.664;9.166;2023-04-24T08:49:30;1.50;;;1.10;;
18754;SDS011;35061;47.664;9.166;2023-04-24T08:52:00;1.40;;;1.20;;
18754;SDS011;35061;47.664;9.166;2023-04-24T08:54:29;3.70;;;1.30;;
18754;SDS011;35061;47.664;9.166;2023-04-24T08:56:59;1.20;;;1.10;;
18754;SDS011;35061;47.664;9.166;2023-04-24T08:59:29;1.12;;;1.02;;
18754;SDS011;35061;47.664;9.166;2023-04-24T09:01:59;2.45;;;1.20;;
18754;SDS011;35061;47.664;9.166;2023-04-24T09:04:27;1.62;;;1.00;;
18754;SDS011;35061;47.664;9.166;2023-04-24T09:06:57;2.42;;;1.48;;
18754;SDS011;35061;47.664;9.166;2023-04-24T09:09:25;2.00;;;1.30;;
18754;SDS011;35061;47.664;9.166;2023-04-24T09:11:54;1.92;;;1.65;;
18754;SDS011;35061;47.664;9.166;2023-04-24T09:14:23;1.77;;;1.40;;
18754;SDS011;35061;47.664;9.166;2023-04-24T09:16:51;2.47;;;1.33;;
18754;SDS011;35061;47.664;9.166;2023-04-24T09:19:19;2.55;;;1.27;;
18754;SDS011;35061;47.664;9.166;2023-04-24T09:21:49;1.65;;;1.55;;
18754;SDS011;35061;47.664;9.166;2023-04-24T09:24:20;1.98;;;1.30;;
18754;SDS011;35061;47.664;9.166;2023-04-24T09:26:56;1.35;;;1.23;;
18754;SDS011;35061;47.664;9.166;2023-04-24T09:29:26;1.40;;;1.30;;
18754;SDS011;35061;47.664;9.166;2023-04-24T09:31:54;2.53;;;1.40;;
18754;SDS011;35061;47.664;9.166;2023-04-24T09:34:23;1.45;;;1.12;;
18754;SDS011;35061;47.664;9.166;2023-04-24T09:36:52;1.95;;;1.50;;
18754;SDS011;35061;47.664;9.166;2023-04-24T09:39:21;1.67;;;1.25;;
18754;SDS011;35061;47.664;9.166;2023-04-24T09:41:49;1.73;;;1.25;;
18754;SDS011;35061;47.664;9.166;2023-04-24T09:44:22;2.05;;;1.00;;
18754;SDS011;35061;47.664;9.166;2023-04-24T09:46:52;1.87;;;1.37;;
18754;SDS011;35061;47.664;9.166;2023-04-24T09:49:23;1.70;;;1.45;;
18754;SDS011;35061;47.664;9.166;2023-04-24T09:51:52;1.65;;;1.30;;
18754;SDS011;35061;47.664;9.166;2023-04-24T09:54:29;2.12;;;1.27;;
18754;SDS011;35061;47.664;9.166;2023-04-24T09:56:58;1.58;;;1.20;;
18754;SDS011;35061;47.664;9.166;2023-04-24T09:59:27;1.65;;;1.50;;
18754;SDS011;35061;47.664;9.166;2023-04-24T10:01:56;1.27;;;1.17;;
18754;SDS011;35061;47.664;9.166;2023-04-24T10:04:26;1.65;;;1.37;;
18754;SDS011;35061;47.664;9.166;2023-04-24T10:06:56;3.62;;;1.60;;
18754;SDS011;35061;47.664;9.166;2023-04-24T10:09:26;2.78;;;1.70;;
18754;SDS011;35061;47.664;9.166;2023-04-24T10:11:54;2.47;;;1.50;;
18754;SDS011;35061;47.664;9.166;2023-04-24T10:14:23;3.08;;;1.42;;
18754;SDS011;35061;47.664;9.166;2023-04-24T10:16:53;2.00;;;1.65;;
18754;SDS011;35061;47.664;9.166;2023-04-24T10:19:22;3.37;;;1.55;;
18754;SDS011;35061;47.664;9.166;2023-04-24T10:21:53;3.22;;;1.40;;
18754;SDS011;35061;47.664;9.166;2023-04-24T10:24:23;2.75;;;1.85;;
18754;SDS011;35061;47.664;9.166;2023-04-24T10:26:51;2.92;;;1.52;;
18754;SDS011;35061;47.664;9.166;2023-04-24T10:29:20;3.97;;;1.35;;
18754;SDS011;35061;47.664;9.166;2023-04-24T10:31:49;1.77;;;1.30;;
18754;SDS011;35061;47.664;9.166;2023-04-24T10:34:18;2.10;;;1.50;;
18754;SDS011;35061;47.664;9.166;2023-04-24T10:36:50;2.75;;;1.25;;
18754;SDS011;35061;47.664;9.166;2023-04-24T10:39:23;1.40;;;1.30;;
18754;SDS011;35061;47.664;9.166;2023-04-24T10:41:53;1.62;;;1.30;;
18754;SDS011;35061;47.664;9.166;2023-04-24T10:44:27;1.83;;;1.10;;
18754;SDS011;35061;47.664;9.166;2023-04-24T10:47:03;3.15;;;1.70;;
18754;SDS011;35061;47.664;9.166;2023-04-24T10:49:31;2.20;;;1.20;;
18754;SDS011;35061;47.664;9.166;2023-04-24T10:52:00;1.60;;;1.40;;
18754;SDS011;35061;47.664;9.166;2023-04-24T10:54:34;2.80;;;1.33;;
18754;SDS011;35061;47.664;9.166;2023-04-24T10:59:45;1.95;;;1.23;;
18754;SDS011;35061;47.664;9.166;2023-04-24T11:02:14;1.55;;;1.27;;
18754;SDS011;35061;47.664;9.166;2023-04-24T11:04:43;2.60;;;1.40;;
18754;SDS011;35061;47.664;9.166;2023-04-24T11:07:13;2.28;;;1.65;;
18754;SDS011;35061;47.664;9.166;2023-04-24T11:09:41;2.25;;;1.48;;
18754;SDS011;35061;47.664;9.166;2023-04-24T11:12:11;3.10;;;1.30;;
18754;SDS011;35061;47.664;9.166;2023-04-24T11:20:01;4.07;;;1.30;;
18754;SDS011;35061;47.664;9.166;2023-04-24T11:22:53;2.35;;;1.55;;
18754;SDS011;35061;47.664;9.166;2023-04-24T11:25:22;2.05;;;1.30;;
18754;SDS011;35061;47.664;9.166;2023-04-24T11:27:51;2.37;;;1.20;;
18754;SDS011;35061;47.664;9.166;2023-04-24T11:30:31;2.35;;;1.60;;
18754;SDS011;35061;47.664;9.166;2023-04-24T11:33:04;1.50;;;1.35;;
18754;SDS011;35061;47.664;9.166;2023-04-24T11:35:39;1.30;;;1.20;;
18754;SDS011;35061;47.664;9.166;2023-04-24T11:38:08;3.35;;;1.58;;
18754;SDS011;35061;47.664;9.166;2023-04-24T11:40:49;3.17;;;1.30;;
18754;SDS011;35061;47.664;9.166;2023-04-24T11:43:19;3.22;;;2.12;;
18754;SDS011;35061;47.664;9.166;2023-04-24T11:45:48;2.62;;;1.58;;
18754;SDS011;35061;47.664;9.166;2023-04-24T11:48:20;1.65;;;0.98;;
18754;SDS011;35061;47.664;9.166;2023-04-24T11:50:50;3.08;;;1.30;;
18754;SDS011;35061;47.664;9.166;2023-04-24T11:53:19;2.90;;;1.50;;
18754;SDS011;35061;47.664;9.166;2023-04-24T11:55:50;2.92;;;1.77;;
18754;SDS011;35061;47.664;9.166;2023-04-24T11:58:20;4.53;;;1.40;;
18754;SDS011;35061;47.664;9.166;2023-04-24T12:00:55;1.52;;;1.40;;
18754;SDS011;35061;47.664;9.166;2023-04-24T12:03:25;2.12;;;1.55;;
18754;SDS011;35061;47.664;9.166;2023-04-24T12:06:04;2.00;;;1.70;;
18754;SDS011;35061;47.664;9.166;2023-04-24T12:08:34;2.12;;;1.58;;
18754;SDS011;35061;47.664;9.166;2023-04-24T12:11:04;4.18;;;1.27;;
18754;SDS011;35061;47.664;9.166;2023-04-24T12:13:36;3.03;;;1.50;;
18754;SDS011;35061;47.664;9.166;2023-04-24T12:16:04;1.65;;;1.40;;
18754;SDS011;35061;47.664;9.166;2023-04-24T12:18:33;2.00;;;1.30;;
18754;SDS011;35061;47.664;9.166;2023-04-24T12:21:20;2.95;;;1.17;;
18754;SDS011;35061;47.664;9.166;2023-04-24T12:23:54;2.58;;;1.15;;
18754;SDS011;35061;47.664;9.166;2023-04-24T12:26:22;2.58;;;1.10;;
18754;SDS011;35061;47.664;9.166;2023-04-24T12:28:50;2.58;;;1.35;;
18754;SDS011;35061;47.664;9.166;2023-04-24T12:31:18;3.05;;;1.55;;
18754;SDS011;35061;47.664;9.166;2023-04-24T12:33:48;3.58;;;1.42;;
18754;SDS011;35061;47.664;9.166;2023-04-24T12:36:16;2.42;;;1.02;;
18754;SDS011;35061;47.664;9.166;2023-04-24T12:38:44;1.60;;;1.50;;
18754;SDS011;35061;47.664;9.166;2023-04-24T12:41:14;6.43;;;1.50;;
18754;SDS011;35061;47.664;9.166;2023-04-24T12:43:51;2.05;;;1.25;;
18754;SDS011;35061;47.664;9.166;2023-04-24T12:46:20;1.62;;;1.15;;
18754;SDS011;35061;47.664;9.166;2023-04-24T12:48:49;2.58;;;1.30;;
18754;SDS011;35061;47.664;9.166;2023-04-24T12:51:17;1.15;;;1.05;;
18754;SDS011;35061;47.664;9.166;2023-04-24T12:53:45;1.62;;;1.23;;
18754;SDS011;35061;47.664;9.166;2023-04-24T12:56:12;2.25;;;1.55;;
18754;SDS011;35061;47.664;9.166;2023-04-24T12:58:40;2.60;;;1.00;;
18754;SDS011;35061;47.664;9.166;2023-04-24T13:01:08;2.10;;;1.15;;
18754;SDS011;35061;47.664;9.166;2023-04-24T13:03:36;1.62;;;1.30;;
18754;SDS011;35061;47.664;9.166;2023-04-24T13:06:05;2.03;;;1.20;;
18754;SDS011;35061;47.664;9.166;2023-04-24T13:08:33;2.72;;;1.37;;
18754;SDS011;35061;47.664;9.166;2023-04-24T13:11:01;1.40;;;1.15;;
18754;SDS011;35061;47.664;9.166;2023-04-24T13:13:29;1.23;;;1.10;;
18754;SDS011;35061;47.664;9.166;2023-04-24T13:15:57;1.85;;;1.52;;
18754;SDS011;35061;47.664;9.166;2023-04-24T13:18:25;2.45;;;1.27;;
18754;SDS011;35061;47.664;9.166;2023-04-24T13:20:53;2.37;;;1.40;;
18754;SDS011;35061;47.664;9.166;2023-04-24T13:23:21;2.72;;;1.50;;
18754;SDS011;35061;47.664;9.166;2023-04-24T13:25:50;1.67;;;1.58;;
18754;SDS011;35061;47.664;9.166;2023-04-24T13:28:18;1.87;;;1.20;;
18754;SDS011;35061;47.664;9.166;2023-04-24T13:30:46;1.62;;;1.27;;
18754;SDS011;35061;47.664;9.166;2023-04-24T13:33:16;2.12;;;1.12;;
18754;SDS011;35061;47.664;9.166;2023-04-24T13:35:44;1.73;;;1.42;;
18754;SDS011;35061;47.664;9.166;2023-04-24T13:38:12;2.95;;;1.40;;
18754;SDS011;35061;47.664;9.166;2023-04-24T13:40:40;2.87;;;1.25;;
18754;SDS011;35061;47.664;9.166;2023-04-24T13:43:08;2.47;;;1.20;;
18754;SDS011;35061;47.664;9.166;2023-04-24T13:45:36;2.62;;;1.30;;
18754;SDS011;35061;47.664;9.166;2023-04-24T13:48:05;1.37;;;1.27;;
18754;SDS011;35061;47.664;9.166;2023-04-24T13:50:33;1.25;;;1.08;;
18754;SDS011;35061;47.664;9.166;2023-04-24T13:53:01;1.40;;;1.30;;
18754;SDS011;35061;47.664;9.166;2023-04-24T13:55:29;2.97;;;1.20;;
18754;SDS011;35061;47.664;9.166;2023-04-24T13:57:58;2.90;;;1.55;;
18754;SDS011;35061;47.664;9.166;2023-04-24T14:00:26;2.00;;;1.20;;
18754;SDS011;35061;47.664;9.166;2023-04-24T14:02:54;1.75;;;1.40;;
18754;SDS011;35061;47.664;9.166;2023-04-24T14:05:23;1.73;;;1.27;;
18754;SDS011;35061;47.664;9.166;2023-04-24T14:07:51;2.47;;;1.42;;
18754;SDS011;35061;47.664;9.166;2023-04-24T14:10:19;3.10;;;1.30;;
18754;SDS011;35061;47.664;9.166;2023-04-24T14:12:47;1.90;;;1.33;;
18754;SDS011;35061;47.664;9.166;2023-04-24T14:15:15;2.85;;;1.50;;
18754;SDS011;35061;47.664;9.166;2023-04-24T14:17:43;1.25;;;1.08;;
18754;SDS011;35061;47.664;9.166;2023-04-24T14:20:12;2.65;;;1.30;;
18754;SDS011;35061;47.664;9.166;2023-04-24T14:22:40;1.92;;;1.40;;
18754;SDS011;35061;47.664;9.166;2023-04-24T14:25:08;1.92;;;1.17;;
18754;SDS011;35061;47.664;9.166;2023-04-24T14:27:37;1.25;;;1.12;;
18754;SDS011;35061;47.664;9.166;2023-04-24T14:30:05;2.78;;;1.27;;
18754;SDS011;35061;47.664;9.166;2023-04-24T14:32:34;1.50;;;1.08;;
18754;SDS011;35061;47.664;9.166;2023-04-24T14:35:03;1.85;;;1.30;;
18754;SDS011;35061;47.664;9.166;2023-04-24T14:37:31;1.48;;;1.25;;
18754;SDS011;35061;47.664;9.166;2023-04-24T14:39:59;2.05;;;1.20;;
18754;SDS011;35061;47.664;9.166;2023-04-24T14:42:31;1.67;;;1.30;;
18754;SDS011;35061;47.664;9.166;2023-04-24T14:44:59;2.03;;;1.10;;
18754;SDS011;35061;47.664;9.166;2023-04-24T14:47:27;3.22;;;1.20;;
18754;SDS011;35061;47.664;9.166;2023-04-24T14:49:56;3.03;;;1.52;;
18754;SDS011;35061;47.664;9.166;2023-04-24T14:52:24;1.45;;;1.30;;
18754;SDS011;35061;47.664;9.166;2023-04-24T14:54:52;1.77;;;0.98;;
18754;SDS011;35061;47.664;9.166;2023-04-24T14:57:20;2.20;;;1.20;;
18754;SDS011;35061;47.664;9.166;2023-04-24T14:59:49;1.23;;;1.12;;
18754;SDS011;35061;47.664;9.166;2023-04-24T15:02:17;2.60;;;1.02;;
18754;SDS011;35061;47.664;9.166;2023-04-24T15:04:47;1.15;;;1.10;;